Time;durP1;ratioP1;P1;durP2;ratioP2;P2;SDS_P1;SDS_P2;PMS_P1;PMS_P2;Temp;Humidity;BMP_temperature;BMP_pressure;BME280_temperature;BME280_humidity;BME280_pressure;Samples;Min_cycle;Max_cycle;Signal;HPM_P1;HPM_P2
2022/09/20 00:01:21;;;;;;;8.02;1.40;;;9.60;99.90;;;;;;4935246;29;20047;-89
2022/09/20 00:03:50;;;;;;;5.95;1.15;;;9.50;99.90;;;;;;4951305;28;20485;-89
2022/09/20 00:06:19;;;;;;;7.78;1.20;;;9.50;99.90;;;;;;4939180;29;20043;-89
2022/09/20 00:08:45;;;;;;;6.55;1.15;;;9.50;99.90;;;;;;4955300;28;20055;-89
2022/09/20 00:11:14;;;;;;;7.60;1.10;;;9.40;99.90;;;;;;4937325;29;20098;-88
2022/09/20 00:13:42;;;;;;;8.38;1.15;;;9.30;99.90;;;;;;4935637;29;20408;-88
2022/09/20 00:16:10;;;;;;;8.55;1.25;;;9.40;99.90;;;;;;4955154;29;20043;-88
2022/09/20 00:18:36;;;;;;;7.13;1.10;;;9.30;99.90;;;;;;4940513;29;20547;-88
2022/09/20 00:21:03;;;;;;;6.72;1.25;;;9.20;99.90;;;;;;4954085;29;20035;-89
2022/09/20 00:23:29;;;;;;;9.48;1.45;;;9.20;99.90;;;;;;4950386;28;20043;-88
2022/09/20 00:25:57;;;;;;;6.47;1.23;;;9.20;99.90;;;;;;4951205;28;20047;-88
2022/09/20 00:28:23;;;;;;;9.55;1.77;;;9.10;99.90;;;;;;4950784;28;20820;-89
2022/09/20 00:30:50;;;;;;;8.60;1.60;;;9.10;99.90;;;;;;4948897;28;20044;-89
2022/09/20 00:33:16;;;;;;;5.53;1.25;;;9.10;99.90;;;;;;4945462;29;20048;-88
2022/09/20 00:35:43;;;;;;;13.98;1.40;;;9.00;99.90;;;;;;4942088;29;20107;-88
2022/09/20 00:38:09;;;;;;;7.78;1.17;;;9.00;99.90;;;;;;4932887;29;20035;-87
2022/09/20 00:40:35;;;;;;;9.13;1.65;;;9.00;99.90;;;;;;4954628;29;20043;-88
2022/09/20 00:43:00;;;;;;;7.40;1.35;;;9.00;99.90;;;;;;4928503;29;20114;-88
2022/09/20 00:45:30;;;;;;;6.00;1.23;;;9.00;99.90;;;;;;4937304;29;20047;-88
2022/09/20 00:48:03;;;;;;;7.47;1.30;;;9.00;99.90;;;;;;4939910;29;20044;-88
2022/09/20 00:50:38;;;;;;;6.22;0.98;;;9.00;99.90;;;;;;4947613;29;20047;-89
2022/09/20 00:53:15;;;;;;;6.95;1.10;;;8.90;99.90;;;;;;4946316;29;20129;-88
2022/09/20 00:55:53;;;;;;;6.68;1.02;;;8.90;99.90;;;;;;4949957;28;20082;-88
2022/09/20 00:58:22;;;;;;;5.60;1.20;;;8.90;99.90;;;;;;4946074;28;20080;-88
2022/09/20 01:00:50;;;;;;;8.38;1.75;;;8.90;99.90;;;;;;4946634;29;20437;-88
2022/09/20 01:03:21;;;;;;;10.48;1.30;;;8.90;99.90;;;;;;4938666;29;20143;-88
2022/09/20 01:05:49;;;;;;;7.72;1.02;;;8.90;99.90;;;;;;4920923;29;20126;-88
2022/09/20 01:08:16;;;;;;;11.38;0.93;;;8.90;99.90;;;;;;4929374;29;20048;-88
2022/09/20 01:10:42;;;;;;;7.15;0.93;;;8.90;99.90;;;;;;4917419;29;20098;-89
2022/09/20 01:13:08;;;;;;;9.25;1.00;;;8.80;99.90;;;;;;4917204;29;20047;-88
2022/09/20 01:15:37;;;;;;;5.93;1.20;;;8.80;99.90;;;;;;4934245;29;20437;-89
2022/09/20 01:18:05;;;;;;;8.68;0.95;;;9.10;99.90;;;;;;4931791;29;20050;-88
2022/09/20 01:20:35;;;;;;;8.18;1.00;;;8.80;99.90;;;;;;4929651;29;20077;-87
2022/09/20 01:23:28;;;;;;;6.25;1.10;;;8.80;99.90;;;;;;4934036;29;20394;-88
2022/09/20 01:25:59;;;;;;;5.47;0.80;;;8.70;99.90;;;;;;4933188;29;20052;-88
2022/09/20 01:28:27;;;;;;;5.18;0.85;;;8.70;99.90;;;;;;4930959;29;20122;-87
2022/09/20 01:31:07;;;;;;;7.03;1.30;;;8.70;99.90;;;;;;4934269;29;20052;-88
2022/09/20 01:33:59;;;;;;;7.63;1.13;;;8.70;99.90;;;;;;4916316;29;20044;-88
2022/09/20 01:36:35;;;;;;;8.32;1.10;;;8.70;99.90;;;;;;4916535;29;20426;-89
2022/09/20 01:39:10;;;;;;;5.40;0.85;;;8.60;99.90;;;;;;4926427;29;20477;-88
2022/09/20 01:41:47;;;;;;;5.68;0.90;;;8.60;99.90;;;;;;4916821;29;20445;-89
2022/09/20 01:44:16;;;;;;;7.20;1.27;;;8.60;99.90;;;;;;4916446;29;20055;-88
2022/09/20 01:46:43;;;;;;;8.85;1.63;;;8.50;99.90;;;;;;4933135;29;20043;-88
2022/09/20 01:49:34;;;;;;;7.30;1.05;;;8.50;99.90;;;;;;4927476;29;20066;-88
2022/09/20 01:52:21;;;;;;;6.75;1.00;;;8.50;99.90;;;;;;4914426;29;20516;-87
2022/09/20 01:55:05;;;;;;;4.70;1.25;;;8.50;99.90;;;;;;4931842;29;20091;-88
2022/09/20 01:57:56;;;;;;;6.25;1.00;;;8.40;99.90;;;;;;4914642;29;20075;-89
2022/09/20 02:00:55;;;;;;;9.18;1.17;;;8.40;99.90;;;;;;4914469;29;20604;-88
2022/09/20 02:03:57;;;;;;;6.05;1.00;;;8.40;99.90;;;;;;4917905;29;20055;-88
2022/09/20 02:06:45;;;;;;;6.93;1.33;;;8.30;99.90;;;;;;4953108;29;20125;-88
2022/09/20 02:09:55;;;;;;;4.45;1.00;;;8.30;99.90;;;;;;4949962;28;20165;-88
2022/09/20 02:12:52;;;;;;;7.22;0.98;;;8.30;99.90;;;;;;4938820;29;20052;-88
2022/09/20 02:15:51;;;;;;;6.78;1.25;;;8.00;99.90;;;;;;4951826;29;20043;-89
2022/09/20 02:18:54;;;;;;;6.65;1.10;;;8.30;99.90;;;;;;4951048;29;20083;-88
2022/09/20 02:21:32;;;;;;;8.18;1.15;;;8.20;99.90;;;;;;4956191;28;20046;-88
2022/09/20 02:24:07;;;;;;;5.07;0.82;;;8.20;99.90;;;;;;5413704;23;20065;-88
2022/09/20 02:26:38;;;;;;;8.57;1.42;;;8.20;99.90;;;;;;4928941;28;20082;-88
2022/09/20 02:29:50;;;;;;;6.60;1.33;;;8.20;99.90;;;;;;4953969;28;20043;-88
2022/09/20 02:33:12;;;;;;;5.07;0.93;;;8.10;99.90;;;;;;4838006;29;20147;-88
2022/09/20 02:35:47;;;;;;;7.50;1.10;;;8.10;99.90;;;;;;4827452;29;20050;-88
2022/09/20 02:38:12;;;;;;;;;;;8.00;99.90;;;;;;4828532;29;20043;-88
2022/09/20 02:40:55;;;;;;;4.00;0.70;;;8.00;99.90;;;;;;4827025;29;19935;-88
2022/09/20 02:43:43;;;;;;;4.70;0.68;;;8.00;99.90;;;;;;4820643;29;20061;-88
2022/09/20 02:46:32;;;;;;;11.38;1.42;;;7.90;99.90;;;;;;4826752;29;20125;-88
2022/09/20 02:49:20;;;;;;;6.70;1.20;;;7.90;99.90;;;;;;4820547;29;20047;-88
2022/09/20 02:51:55;;;;;;;6.65;1.40;;;7.90;99.90;;;;;;4827922;29;20506;-89
2022/09/20 02:54:42;;;;;;;4.57;0.80;;;7.90;99.90;;;;;;4826445;29;20093;-88
2022/09/20 02:57:08;;;;;;;6.32;1.20;;;7.90;99.90;;;;;;4821329;29;20090;-88
2022/09/20 02:59:51;;;;;;;3.72;0.77;;;7.90;99.90;;;;;;4806854;29;20519;-89
2022/09/20 03:02:36;;;;;;;4.82;0.60;;;7.90;99.90;;;;;;4822884;29;20049;-89
2022/09/20 03:05:35;;;;;;;4.25;0.80;;;7.80;99.90;;;;;;4831532;29;20163;-88
2022/09/20 03:08:23;;;;;;;6.82;0.80;;;7.80;99.90;;;;;;4958986;28;20073;-88
2022/09/20 03:11:01;;;;;;;3.13;0.65;;;7.80;99.90;;;;;;4948412;28;20569;-89
2022/09/20 03:13:35;;;;;;;5.47;0.80;;;7.70;99.90;;;;;;4953606;28;20043;-88
2022/09/20 03:16:11;;;;;;;5.20;0.80;;;7.70;99.90;;;;;;4954572;28;20046;-88
2022/09/20 03:18:51;;;;;;;5.63;0.70;;;7.70;99.90;;;;;;4957447;28;20493;-88
2022/09/20 03:21:46;;;;;;;6.75;0.75;;;7.70;99.90;;;;;;4931890;28;20067;-87
2022/09/20 03:24:38;;;;;;;6.00;1.10;;;7.70;99.90;;;;;;4947558;28;20102;-89
2022/09/20 03:27:27;;;;;;;5.28;1.00;;;7.70;99.90;;;;;;4953137;28;20411;-89
2022/09/20 03:30:02;;;;;;;5.32;1.10;;;7.70;99.90;;;;;;4936741;29;20047;-88
2022/09/20 03:32:43;;;;;;;5.45;0.75;;;7.60;99.90;;;;;;4952985;28;20067;-88
2022/09/20 03:35:24;;;;;;;6.43;0.90;;;7.60;99.90;;;;;;4956269;28;20116;-88
2022/09/20 03:38:30;;;;;;;3.13;0.90;;;7.60;99.90;;;;;;4952168;28;20035;-88
2022/09/20 03:41:26;;;;;;;8.45;1.17;;;7.60;99.90;;;;;;4954073;28;20106;-88
2022/09/20 03:43:55;;;;;;;4.05;0.90;;;7.60;99.90;;;;;;4938485;29;20086;-87
2022/09/20 03:46:27;;;;;;;8.25;1.10;;;7.60;99.90;;;;;;4953881;28;20043;-89
2022/09/20 03:49:02;;;;;;;3.33;0.88;;;7.60;99.90;;;;;;4952495;28;20051;-88
2022/09/20 03:52:06;;;;;;;8.63;0.77;;;7.60;99.90;;;;;;4954928;28;20046;-88
2022/09/20 03:54:41;;;;;;;5.50;0.73;;;7.50;99.90;;;;;;4947425;28;20054;-88
2022/09/20 03:57:18;;;;;;;4.38;0.75;;;7.50;99.90;;;;;;4955093;28;20086;-88
2022/09/20 04:00:19;;;;;;;5.20;0.90;;;7.50;99.90;;;;;;4952539;28;20479;-87
2022/09/20 04:02:51;;;;;;;8.48;1.20;;;7.40;99.90;;;;;;4954969;28;20047;-87
2022/09/20 04:05:41;;;;;;;4.68;0.80;;;7.50;99.90;;;;;;4955686;28;20074;-88
2022/09/20 04:08:25;;;;;;;5.25;1.10;;;7.40;99.90;;;;;;4937019;29;20043;-88
2022/09/20 04:11:23;;;;;;;5.25;1.00;;;7.50;99.90;;;;;;4956028;28;20035;-87
2022/09/20 04:14:08;;;;;;;7.60;1.08;;;7.50;99.90;;;;;;4933396;28;20073;-87
2022/09/20 04:17:00;;;;;;;4.20;1.10;;;7.60;99.90;;;;;;4956148;28;20047;-88
2022/09/20 04:20:12;;;;;;;10.77;1.30;;;7.70;99.90;;;;;;4953160;28;20470;-88
2022/09/20 04:22:40;;;;;;;3.80;0.90;;;7.70;99.90;;;;;;4946293;28;20043;-88
2022/09/20 04:25:22;;;;;;;8.73;1.17;;;7.80;99.90;;;;;;4955270;28;20467;-88
2022/09/20 04:28:01;;;;;;;6.53;1.30;;;7.90;99.90;;;;;;4956625;28;20047;-87
2022/09/20 04:30:32;;;;;;;6.82;1.20;;;7.90;99.90;;;;;;4954225;28;20051;-88
2022/09/20 04:33:17;;;;;;;7.80;1.08;;;8.00;99.90;;;;;;4936712;28;20055;-88
2022/09/20 04:38:31;;;;;;;5.60;1.30;;;8.10;99.90;;;;;;4954111;28;19922;-91
2022/09/20 04:41:18;;;;;;;5.70;1.38;;;8.20;99.90;;;;;;4958018;28;20047;-88
2022/09/20 04:44:07;;;;;;;9.95;1.40;;;8.30;99.90;;;;;;4970807;28;20130;-88
2022/09/20 04:47:01;;;;;;;9.63;1.30;;;8.30;99.90;;;;;;4954701;28;20051;-89
2022/09/20 04:50:06;;;;;;;6.22;1.20;;;8.30;99.90;;;;;;4932898;28;20059;-90
2022/09/20 04:52:51;;;;;;;;;;;8.40;99.90;;;;;;4949135;29;20062;-89
2022/09/20 04:55:35;;;;;;;10.73;1.55;;;8.40;99.90;;;;;;4962498;28;19969;-89
2022/09/20 04:58:21;;;;;;;6.13;0.90;;;8.40;99.90;;;;;;4943956;28;20043;-91
2022/09/20 05:01:02;;;;;;;5.50;1.42;;;8.40;99.90;;;;;;4956815;28;20055;-89
2022/09/20 05:04:05;;;;;;;5.28;1.00;;;8.30;99.90;;;;;;4964741;28;20043;-85
2022/09/20 05:07:24;;;;;;;6.40;1.17;;;8.30;99.90;;;;;;4938180;29;20122;-91
2022/09/20 05:10:23;;;;;;;6.38;1.23;;;8.30;99.90;;;;;;4927855;28;20046;-92
2022/09/20 05:13:27;;;;;;;7.00;1.20;;;8.30;99.90;;;;;;4958056;28;20491;-89
2022/09/20 05:16:24;;;;;;;6.68;1.10;;;8.30;99.90;;;;;;4957615;28;20050;-90
2022/09/20 05:19:02;;;;;;;5.85;0.90;;;8.30;99.90;;;;;;4933571;28;20051;-89
2022/09/20 05:22:00;;;;;;;4.40;1.10;;;8.30;99.90;;;;;;4947203;28;20137;-89
2022/09/20 05:24:41;;;;;;;6.35;1.08;;;8.30;99.90;;;;;;4911282;29;20048;-87
2022/09/20 05:27:41;;;;;;;4.85;1.23;;;8.30;99.90;;;;;;4899805;29;20125;-88
2022/09/20 05:30:36;;;;;;;7.88;1.02;;;8.40;99.90;;;;;;4899385;29;20382;-88
2022/09/20 05:33:09;;;;;;;;;;;8.40;99.90;;;;;;4885067;29;20040;-88
2022/09/20 05:35:53;;;;;;;6.50;1.05;;;8.40;99.90;;;;;;4893182;29;20313;-87
2022/09/20 05:38:33;;;;;;;5.67;1.27;;;8.50;99.90;;;;;;4900465;29;20077;-87
2022/09/20 05:41:17;;;;;;;6.97;1.60;;;8.50;99.90;;;;;;4898997;29;20045;-88
2022/09/20 05:44:17;;;;;;;4.63;1.15;;;8.60;99.90;;;;;;4899977;29;20052;-88
2022/09/20 05:46:56;;;;;;;5.60;1.17;;;8.70;99.90;;;;;;4883833;29;20053;-87
2022/09/20 05:49:35;;;;;;;7.50;1.10;;;8.70;99.90;;;;;;4897002;29;20045;-87
2022/09/20 05:52:13;;;;;;;7.28;1.00;;;8.70;99.90;;;;;;4898879;29;20201;-87
2022/09/20 05:55:15;;;;;;;6.25;1.20;;;8.90;99.90;;;;;;4900309;29;20054;-87
2022/09/20 05:57:55;;;;;;;4.88;1.00;;;8.90;99.90;;;;;;4900593;29;20044;-87
2022/09/20 06:00:26;;;;;;;5.47;0.77;;;9.00;99.90;;;;;;4882279;29;20079;-87
2022/09/20 06:03:10;;;;;;;7.20;1.00;;;9.10;99.90;;;;;;4938928;29;20088;-87
2022/09/20 06:05:36;;;;;;;6.53;1.35;;;9.10;99.90;;;;;;4939584;29;20040;-87
2022/09/20 06:08:29;;;;;;;8.27;1.30;;;9.20;99.90;;;;;;4947924;29;20186;-87
2022/09/20 06:11:14;;;;;;;7.38;1.63;;;9.30;99.90;;;;;;4943468;29;20040;-88
2022/09/20 06:14:03;;;;;;;6.32;0.88;;;9.40;99.90;;;;;;4953823;29;20082;-88
2022/09/20 06:16:46;;;;;;;5.70;1.05;;;9.70;99.90;;;;;;4935901;29;20424;-89
2022/09/20 06:19:44;;;;;;;7.80;1.48;;;9.50;99.90;;;;;;4930284;29;20043;-88
2022/09/20 06:22:48;;;;;;;4.95;1.10;;;9.50;99.90;;;;;;4930049;29;20244;-88
2022/09/20 06:25:23;;;;;;;5.78;0.95;;;9.50;99.90;;;;;;4936673;28;20047;-88
2022/09/20 06:28:10;;;;;;;4.72;1.00;;;9.50;99.90;;;;;;4951348;28;20408;-88
2022/09/20 06:30:43;;;;;;;4.78;0.90;;;9.50;99.90;;;;;;4949432;28;20053;-88
2022/09/20 06:33:11;;;;;;;4.53;0.98;;;9.40;99.90;;;;;;4949772;28;20731;-88
2022/09/20 06:41:25;;;;;;;5.10;1.00;;;9.40;99.90;;;;;;4949027;28;20106;-88
2022/09/20 06:41:48;;;;;;;5.25;1.70;;;9.40;99.90;;;;;;4948415;28;20031;-88
2022/09/20 06:44:14;;;;;;;5.63;1.30;;;9.40;99.90;;;;;;4951379;28;20368;-88
2022/09/20 06:46:40;;;;;;;6.78;1.55;;;9.40;99.90;;;;;;4934138;28;20046;-87
2022/09/20 06:49:08;;;;;;;5.45;1.20;;;9.40;99.90;;;;;;4945561;28;20031;-88
2022/09/20 06:51:38;;;;;;;7.10;1.10;;;9.60;99.90;;;;;;4951588;28;20487;-88
2022/09/20 06:54:07;;;;;;;6.05;0.90;;;9.70;99.90;;;;;;4947819;28;20050;-88
2022/09/20 06:56:35;;;;;;;14.07;2.50;;;9.80;99.90;;;;;;4951016;28;20035;-87
2022/09/20 06:59:09;;;;;;;8.32;1.40;;;10.00;99.90;;;;;;4951092;28;20098;-88
2022/09/20 07:01:35;;;;;;;6.20;1.50;;;10.40;99.90;;;;;;4952291;28;20058;-88
2022/09/20 07:04:01;;;;;;;7.85;1.17;;;10.30;99.90;;;;;;4951537;28;20035;-88
2022/09/20 07:06:28;;;;;;;9.05;1.42;;;10.50;99.90;;;;;;4951137;28;20050;-88
2022/09/20 07:08:53;;;;;;;6.68;1.25;;;10.60;99.90;;;;;;4951554;28;20043;-88
2022/09/20 07:11:21;;;;;;;6.95;1.10;;;10.80;99.90;;;;;;4953460;28;20039;-89
2022/09/20 07:13:52;;;;;;;6.28;0.90;;;10.90;99.90;;;;;;4950848;28;20040;-88
2022/09/20 07:16:18;;;;;;;5.30;1.60;;;11.00;99.90;;;;;;4950827;28;20043;-88
2022/09/20 07:18:44;;;;;;;5.63;1.10;;;11.10;99.90;;;;;;4951380;28;20047;-88
2022/09/20 07:21:15;;;;;;;4.45;0.80;;;11.20;99.90;;;;;;4954029;28;20114;-88
2022/09/20 07:23:41;;;;;;;6.00;0.80;;;11.20;99.90;;;;;;4950344;28;20336;-88
2022/09/20 07:26:20;;;;;;;4.35;0.98;;;11.20;99.90;;;;;;4951364;28;20457;-88
2022/09/20 07:28:46;;;;;;;5.47;1.15;;;11.30;99.90;;;;;;4948757;28;20046;-88
2022/09/20 07:31:11;;;;;;;7.47;1.30;;;11.20;99.90;;;;;;4951091;28;20035;-89
2022/09/20 07:33:37;;;;;;;5.10;0.80;;;11.30;99.90;;;;;;4951104;28;20062;-88
2022/09/20 07:36:03;;;;;;;10.88;1.20;;;11.40;99.90;;;;;;4953885;28;20031;-89
2022/09/20 07:38:28;;;;;;;6.15;0.90;;;11.40;99.90;;;;;;4957338;28;20039;-88
2022/09/20 07:40:59;;;;;;;5.85;0.93;;;11.50;99.90;;;;;;4955035;28;20089;-88
2022/09/20 07:43:25;;;;;;;5.43;1.08;;;11.50;99.90;;;;;;4954608;28;20122;-88
2022/09/20 07:45:56;;;;;;;4.22;0.68;;;11.80;99.90;;;;;;4954556;28;20428;-88
2022/09/20 07:48:24;;;;;;;5.45;1.17;;;11.60;99.90;;;;;;4950876;28;20078;-88
2022/09/20 07:50:59;;;;;;;8.20;1.38;;;11.60;99.90;;;;;;4954578;28;20039;-88
2022/09/20 07:53:25;;;;;;;4.50;0.90;;;11.60;99.90;;;;;;4954311;28;20066;-88
2022/09/20 07:56:01;;;;;;;6.70;0.93;;;11.60;99.90;;;;;;4955709;28;20043;-89
2022/09/20 07:58:29;;;;;;;6.00;1.13;;;11.50;99.90;;;;;;4958509;28;20534;-88
2022/09/20 08:00:57;;;;;;;6.15;0.93;;;11.60;99.90;;;;;;4954304;28;20054;-87
2022/09/20 08:03:24;;;;;;;5.35;0.90;;;11.50;99.90;;;;;;4953706;28;20526;-88
2022/09/20 08:05:49;;;;;;;4.68;1.13;;;11.50;99.90;;;;;;4954700;28;20055;-88
2022/09/20 08:08:17;;;;;;;4.35;0.70;;;11.50;99.90;;;;;;4959049;28;20075;-89
2022/09/20 08:10:46;;;;;;;5.18;0.77;;;11.50;99.90;;;;;;4954557;28;20565;-88
2022/09/20 08:13:12;;;;;;;7.85;0.75;;;11.50;99.90;;;;;;4953250;28;20036;-88
2022/09/20 08:15:39;;;;;;;6.72;0.70;;;11.50;99.90;;;;;;4936861;29;20479;-89
2022/09/20 08:18:07;;;;;;;5.95;0.60;;;11.40;99.90;;;;;;4937096;28;20035;-89
2022/09/20 08:20:36;;;;;;;5.55;0.60;;;11.40;99.90;;;;;;4955286;28;20445;-89
2022/09/20 08:23:02;;;;;;;4.45;0.60;;;11.40;99.90;;;;;;4954641;28;20035;-89
2022/09/20 08:25:28;;;;;;;5.85;0.77;;;11.50;99.90;;;;;;4937081;28;20058;-88
2022/09/20 08:27:54;;;;;;;2.85;0.55;;;11.50;99.90;;;;;;4953355;28;20035;-89
2022/09/20 08:30:19;;;;;;;5.55;1.05;;;11.50;99.90;;;;;;4959602;28;20116;-88
2022/09/20 08:32:45;;;;;;;5.30;0.70;;;11.50;99.90;;;;;;4954030;28;20058;-89
2022/09/20 08:35:10;;;;;;;4.70;0.70;;;11.50;99.90;;;;;;4953996;28;20050;-88
2022/09/20 08:37:36;;;;;;;5.65;0.90;;;11.50;99.90;;;;;;4953921;28;20028;-88
2022/09/20 08:40:03;;;;;;;5.65;0.80;;;11.50;99.90;;;;;;4954110;28;20039;-88
2022/09/20 08:42:36;;;;;;;5.28;0.77;;;11.50;99.90;;;;;;4935997;28;20472;-88
2022/09/20 08:45:06;;;;;;;6.25;0.70;;;11.60;99.90;;;;;;4936477;29;20070;-89
2022/09/20 08:47:37;;;;;;;4.20;0.77;;;11.70;99.90;;;;;;4958643;28;20055;-88
2022/09/20 08:50:06;;;;;;;10.18;1.05;;;11.70;99.90;;;;;;4956717;28;20098;-88
2022/09/20 08:52:39;;;;;;;4.35;0.60;;;11.70;99.90;;;;;;4953661;28;20541;-89
2022/09/20 08:55:20;;;;;;;4.30;0.65;;;11.80;99.90;;;;;;4952507;28;20043;-89
2022/09/20 08:57:52;;;;;;;4.35;0.75;;;11.90;99.90;;;;;;4951309;28;20043;-88
2022/09/20 09:00:24;;;;;;;5.82;1.63;;;12.10;99.90;;;;;;4953645;28;20487;-88
2022/09/20 09:02:53;;;;;;;3.80;0.82;;;12.20;99.90;;;;;;4934887;28;20043;-89
2022/09/20 09:05:33;;;;;;;6.28;0.63;;;12.30;99.90;;;;;;4952808;28;20035;-88
2022/09/20 09:08:03;;;;;;;4.28;0.85;;;12.40;99.90;;;;;;4953269;28;20484;-88
2022/09/20 09:10:39;;;;;;;7.30;1.10;;;12.50;99.90;;;;;;4953041;28;20062;-87
2022/09/20 09:13:05;;;;;;;10.95;0.85;;;12.70;99.90;;;;;;4953429;28;20047;-88
2022/09/20 09:15:36;;;;;;;5.38;1.23;;;12.90;99.90;;;;;;4952816;28;20107;-89
2022/09/20 09:18:02;;;;;;;4.60;0.68;;;13.00;99.90;;;;;;4952477;28;20039;-88
2022/09/20 09:20:28;;;;;;;5.00;0.60;;;13.20;99.90;;;;;;4939452;29;20374;-88
2022/09/20 09:23:07;;;;;;;6.78;0.85;;;13.30;99.90;;;;;;4952985;28;20039;-88
2022/09/20 09:25:40;;;;;;;5.93;0.80;;;13.50;99.90;;;;;;4918378;29;20052;-88
2022/09/20 09:28:06;;;;;;;3.67;0.93;;;13.90;99.90;;;;;;4912317;29;20123;-89
2022/09/20 09:30:37;;;;;;;3.65;0.60;;;14.10;99.90;;;;;;4933610;29;20170;-88
2022/09/20 09:33:29;;;;;;;3.03;0.50;;;14.20;99.90;;;;;;4918616;29;20059;-88
2022/09/20 09:36:03;;;;;;;4.13;0.63;;;14.10;99.90;;;;;;4934973;29;20133;-88
2022/09/20 09:38:32;;;;;;;4.13;0.50;;;14.00;99.90;;;;;;4932519;29;20036;-88
2022/09/20 09:41:03;;;;;;;4.43;0.60;;;13.90;99.90;;;;;;4929109;29;20043;-88
2022/09/20 09:43:32;;;;;;;5.38;0.60;;;13.90;99.90;;;;;;4933699;29;20051;-88
2022/09/20 09:46:22;;;;;;;5.78;1.10;;;14.00;99.90;;;;;;4936347;29;20122;-88
2022/09/20 09:49:11;;;;;;;4.30;0.80;;;14.20;99.90;;;;;;4933049;29;20107;-89
2022/09/20 09:51:37;;;;;;;5.07;0.50;;;14.60;99.90;;;;;;4932832;29;20035;-89
2022/09/20 09:54:06;;;;;;;3.22;0.35;;;14.90;99.90;;;;;;4933012;29;20071;-89
2022/09/20 09:56:56;;;;;;;6.15;1.58;;;15.20;99.90;;;;;;4933437;29;20047;-88
2022/09/20 09:59:49;;;;;;;6.75;0.40;;;15.50;99.90;;;;;;4933088;29;20040;-89
2022/09/20 10:02:31;;;;;;;4.13;0.63;;;15.70;99.90;;;;;;4933061;29;20048;-89
2022/09/20 10:05:15;;;;;;;3.70;0.50;;;15.80;99.90;;;;;;4932621;29;20043;-88
2022/09/20 10:07:53;;;;;;;3.75;0.77;;;15.80;99.90;;;;;;4918984;29;20445;-88
2022/09/20 10:10:42;;;;;;;6.18;0.50;;;16.00;99.90;;;;;;4933083;29;20373;-89
2022/09/20 10:13:40;;;;;;;3.53;0.40;;;16.30;99.90;;;;;;4924765;29;20254;-88
2022/09/20 10:16:37;;;;;;;4.35;0.55;;;16.50;99.90;;;;;;4931766;29;20106;-89
2022/09/20 10:19:26;;;;;;;3.75;0.50;;;16.70;99.90;;;;;;4931017;29;20043;-89
2022/09/20 10:22:07;;;;;;;1.92;0.40;;;16.80;99.90;;;;;;4943300;29;20039;-88
2022/09/20 10:24:54;;;;;;;1.20;0.40;;;16.90;99.90;;;;;;4937369;28;20070;-90
2022/09/20 10:27:28;;;;;;;2.20;0.40;;;16.80;99.90;;;;;;4955276;28;20039;-89
2022/09/20 10:30:06;;;;;;;3.33;0.35;;;16.70;99.90;;;;;;4946173;28;20125;-88
2022/09/20 10:32:48;;;;;;;2.90;0.30;;;16.60;99.90;;;;;;4934581;28;20509;-89
2022/09/20 10:35:46;;;;;;;5.97;1.20;;;16.40;99.90;;;;;;4951160;28;20054;-88
2022/09/20 10:38:13;;;;;;;3.67;0.68;;;16.40;99.90;;;;;;4948408;28;20047;-89
2022/09/20 10:43:49;;;;;;;3.10;0.50;;;16.40;99.90;;;;;;4934342;28;20169;-89
2022/09/20 10:46:20;;;;;;;5.20;0.63;;;16.30;99.90;;;;;;4934177;29;20507;-88
2022/09/20 10:48:51;;;;;;;6.95;1.02;;;16.30;99.90;;;;;;4934466;28;20122;-88
2022/09/20 10:51:36;;;;;;;4.10;0.70;;;16.20;99.90;;;;;;4951142;28;20050;-88
2022/09/20 10:54:32;;;;;;;5.15;0.60;;;16.20;99.90;;;;;;4951130;28;20126;-88
2022/09/20 10:57:50;;;;;;;4.70;0.75;;;16.10;99.90;;;;;;4951186;28;20054;-89
2022/09/20 11:00:42;;;;;;;10.07;0.60;;;16.10;99.90;;;;;;4836567;29;20077;-89
2022/09/20 11:03:54;;;;;;;5.82;0.60;;;16.20;99.90;;;;;;4842416;29;20053;-89
2022/09/20 11:06:20;;;;;;;4.05;0.60;;;16.30;99.90;;;;;;4840012;29;20062;-88
2022/09/20 11:08:50;;;;;;;5.50;0.70;;;16.40;99.90;;;;;;4822517;29;20046;-88
2022/09/20 11:11:27;;;;;;;3.33;0.63;;;16.50;99.90;;;;;;4845534;29;20491;-89
2022/09/20 11:14:00;;;;;;;6.03;0.70;;;16.50;99.90;;;;;;4842473;29;20045;-86
2022/09/20 11:16:44;;;;;;;4.93;0.75;;;16.60;99.90;;;;;;4824828;29;20064;-87
2022/09/20 11:19:25;;;;;;;4.97;0.63;;;16.60;99.90;;;;;;4842006;29;20744;-88
2022/09/20 11:22:22;;;;;;;5.68;1.05;;;16.70;99.90;;;;;;4841666;29;20061;-87
2022/09/20 11:24:57;;;;;;;4.40;0.90;;;16.70;99.90;;;;;;4831788;29;20094;-87
2022/09/20 11:27:28;;;;;;;4.78;0.80;;;16.70;99.90;;;;;;4828452;29;20108;-86
2022/09/20 11:30:15;;;;;;;4.53;0.75;;;16.70;99.90;;;;;;4832192;29;20170;-89
2022/09/20 11:32:48;;;;;;;5.00;0.68;;;16.70;99.90;;;;;;4844208;29;20094;-90
2022/09/20 11:35:28;;;;;;;4.85;0.60;;;16.60;99.90;;;;;;4874068;28;20054;-89
2022/09/20 11:38:15;;;;;;;4.63;0.50;;;16.60;99.90;;;;;;4961805;28;20042;-89
2022/09/20 11:40:48;;;;;;;4.93;0.63;;;16.50;99.90;;;;;;4957762;28;20047;-90
2022/09/20 11:43:17;;;;;;;4.72;0.70;;;16.50;99.90;;;;;;4960713;28;20027;-89
2022/09/20 11:45:46;;;;;;;7.50;0.65;;;16.50;99.90;;;;;;4961428;28;20114;-90
2022/09/20 11:48:20;;;;;;;5.03;0.80;;;16.60;99.90;;;;;;4962641;28;20046;-90
2022/09/20 11:51:14;;;;;;;6.17;0.80;;;16.60;99.90;;;;;;4960109;28;20047;-87
2022/09/20 11:54:09;;;;;;;5.80;1.00;;;16.70;99.90;;;;;;4936326;28;20111;-86
2022/09/20 11:56:37;;;;;;;7.70;0.90;;;16.70;99.90;;;;;;4955771;28;20039;-86
2022/09/20 11:59:06;;;;;;;8.15;0.88;;;16.70;99.90;;;;;;4956848;28;20039;-87
2022/09/20 12:01:35;;;;;;;6.13;0.88;;;16.70;99.90;;;;;;4956276;28;20039;-87
2022/09/20 12:04:22;;;;;;;3.42;0.70;;;16.60;99.90;;;;;;4939581;28;20051;-87
2022/09/20 12:07:07;;;;;;;3.17;0.60;;;16.60;99.90;;;;;;4953435;28;20078;-87
2022/09/20 12:09:39;;;;;;;4.25;0.63;;;16.60;99.90;;;;;;4961798;28;20123;-87
2022/09/20 12:12:33;;;;;;;5.20;0.60;;;16.60;99.90;;;;;;4942962;28;20395;-87
2022/09/20 12:15:00;;;;;;;7.28;0.80;;;16.60;99.90;;;;;;4956814;28;20046;-86
2022/09/20 12:17:44;;;;;;;4.57;0.57;;;16.70;99.90;;;;;;4961088;28;20429;-87
2022/09/20 12:20:33;;;;;;;5.72;0.65;;;16.80;99.90;;;;;;4954395;28;20043;-87
2022/09/20 12:23:39;;;;;;;6.25;1.25;;;17.00;99.90;;;;;;4948752;28;20047;-87
2022/09/20 12:26:06;;;;;;;4.50;0.60;;;17.30;99.80;;;;;;4941769;28;20571;-88
2022/09/20 12:28:40;;;;;;;4.28;0.50;;;17.70;99.90;;;;;;4953358;28;20092;-89
2022/09/20 12:31:22;;;;;;;5.40;0.82;;;18.10;99.40;;;;;;4952933;28;20046;-88
2022/09/20 12:34:08;;;;;;;6.18;0.90;;;18.40;99.90;;;;;;4953439;28;20058;-87
2022/09/20 12:36:42;;;;;;;7.88;0.90;;;18.50;99.60;;;;;;4952154;28;20047;-88
2022/09/20 12:39:09;;;;;;;6.47;0.65;;;18.60;99.90;;;;;;4953081;28;20047;-88
2022/09/20 12:41:50;;;;;;;6.50;0.95;;;18.60;99.90;;;;;;4954158;28;20126;-89
2022/09/20 12:44:31;;;;;;;5.07;0.70;;;18.60;99.50;;;;;;4954019;28;20035;-86
2022/09/20 12:47:05;;;;;;;6.50;0.70;;;18.50;99.30;;;;;;4952342;28;20047;-90
2022/09/20 12:52:49;;;;;;;4.50;0.60;;;18.70;99.20;;;;;;4948149;28;20197;-87
2022/09/20 12:55:45;;;;;;;4.47;0.68;;;19.00;97.50;;;;;;4945360;28;20084;-88
2022/09/20 12:58:13;;;;;;;5.30;0.63;;;19.20;96.90;;;;;;4949599;28;20164;-88
2022/09/20 13:00:56;;;;;;;4.55;0.40;;;19.20;97.60;;;;;;4952986;28;20500;-87
2022/09/20 13:03:33;;;;;;;5.07;0.65;;;19.20;97.80;;;;;;4951639;28;20039;-87
2022/09/20 13:06:05;;;;;;;4.72;0.52;;;19.20;97.80;;;;;;4952729;28;20510;-88
2022/09/20 13:08:38;;;;;;;7.15;1.05;;;19.20;97.50;;;;;;4952367;28;20042;-88
2022/09/20 13:11:11;;;;;;;8.15;0.70;;;19.30;97.80;;;;;;4951426;28;20039;-88
2022/09/20 13:14:04;;;;;;;6.40;0.90;;;19.20;97.10;;;;;;4956676;28;20055;-88
2022/09/20 13:16:46;;;;;;;3.55;0.60;;;19.20;97.30;;;;;;4954815;28;20046;-85
2022/09/20 13:19:22;;;;;;;5.55;0.80;;;19.20;97.80;;;;;;4953980;28;20147;-85
2022/09/20 13:22:04;;;;;;;9.48;1.42;;;19.20;96.70;;;;;;4957339;28;20074;-85
2022/09/20 13:24:35;;;;;;;2.55;0.52;;;19.30;97.10;;;;;;4948957;28;20492;-86
2022/09/20 13:27:10;;;;;;;4.43;0.40;;;19.30;97.40;;;;;;4944902;28;20094;-85
2022/09/20 13:29:43;;;;;;;6.25;0.68;;;19.60;97.00;;;;;;4953004;28;20066;-86
2022/09/20 13:32:17;;;;;;;6.05;0.80;;;19.70;97.10;;;;;;4956161;28;20523;-85
2022/09/20 13:34:44;;;;;;;3.42;0.50;;;19.80;97.40;;;;;;4939513;28;21824;-85
2022/09/20 13:37:22;;;;;;;5.22;0.47;;;19.80;96.40;;;;;;4961312;28;20077;-87
2022/09/20 13:39:53;;;;;;;2.70;0.45;;;19.50;95.70;;;;;;4934722;28;20046;-87
2022/09/20 13:42:20;;;;;;;4.45;0.60;;;19.00;96.10;;;;;;4954393;28;20078;-86
2022/09/20 13:44:47;;;;;;;3.42;0.80;;;18.80;96.80;;;;;;4938288;28;20054;-88
2022/09/20 13:47:30;;;;;;;3.83;0.60;;;18.50;97.00;;;;;;4960031;28;20110;-86
2022/09/20 13:50:01;;;;;;;5.68;0.60;;;18.30;97.10;;;;;;4963693;28;20077;-88
2022/09/20 13:52:30;;;;;;;2.75;0.40;;;18.20;98.00;;;;;;4956729;28;20046;-87
2022/09/20 13:54:56;;;;;;;5.57;0.80;;;18.10;97.90;;;;;;4937981;28;20831;-87
2022/09/20 13:57:26;;;;;;;2.45;0.40;;;18.10;98.30;;;;;;4957060;28;20069;-87
2022/09/20 13:59:53;;;;;;;3.30;0.60;;;18.30;98.90;;;;;;4953005;28;20066;-85
2022/09/20 14:02:31;;;;;;;4.88;0.77;;;18.50;98.70;;;;;;4957542;28;20066;-87